sensor_id;sensor_type;location;lat;lon;timestamp;pressure;altitude;pressure_sealevel;temperature;humidity
54417;BME280;40326;51.220;7.250;2022-08-03T00:00:40;98483.47;;;16.90;100.00
54417;BME280;40326;51.220;7.250;2022-08-03T00:03:05;98481.59;;;16.92;100.00
54417;BME280;40326;51.220;7.250;2022-08-03T00:05:30;98486.97;;;16.89;100.00
54417;BME280;40326;51.220;7.250;2022-08-03T00:07:58;98488.66;;;16.90;100.00
54417;BME280;40326;51.220;7.250;2022-08-03T00:10:23;98485.81;;;16.93;100.00
54417;BME280;40326;51.220;7.250;2022-08-03T00:12:49;98474.53;;;16.94;100.00
54417;BME280;40326;51.220;7.250;2022-08-03T00:15:15;98483.94;;;16.95;100.00
54417;BME280;40326;51.220;7.250;2022-08-03T00:17:40;98473.47;;;16.96;100.00
54417;BME280;40326;51.220;7.250;2022-08-03T00:20:06;98474.28;;;16.97;100.00
54417;BME280;40326;51.220;7.250;2022-08-03T00:22:34;98469.38;;;16.94;100.00
54417;BME280;40326;51.220;7.250;2022-08-03T00:24:59;98467.72;;;16.93;100.00
54417;BME280;40326;51.220;7.250;2022-08-03T00:27:25;98467.28;;;16.99;100.00
54417;BME280;40326;51.220;7.250;2022-08-03T00:29:50;98462.66;;;16.91;100.00
54417;BME280;40326;51.220;7.250;2022-08-03T00:32:15;98462.53;;;16.82;100.00
54417;BME280;40326;51.220;7.250;2022-08-03T00:34:44;98461.78;;;16.80;100.00
54417;BME280;40326;51.220;7.250;2022-08-03T00:37:09;98466.97;;;16.80;100.00
54417;BME280;40326;51.220;7.250;2022-08-03T00:39:34;98463.22;;;16.84;100.00
54417;BME280;40326;51.220;7.250;2022-08-03T00:42:04;98466.19;;;16.90;100.00
54417;BME280;40326;51.220;7.250;2022-08-03T00:44:30;98459.84;;;16.94;100.00
54417;BME280;40326;51.220;7.250;2022-08-03T00:46:55;98453.84;;;16.83;100.00
54417;BME280;40326;51.220;7.250;2022-08-03T00:49:21;98462.03;;;16.77;100.00
54417;BME280;40326;51.220;7.250;2022-08-03T00:51:46;98458.13;;;16.71;100.00
54417;BME280;40326;51.220;7.250;2022-08-03T00:54:13;98461.34;;;16.74;100.00
54417;BME280;40326;51.220;7.250;2022-08-03T00:56:39;98462.47;;;16.70;100.00
54417;BME280;40326;51.220;7.250;2022-08-03T00:59:05;98459.59;;;16.62;100.00
54417;BME280;40326;51.220;7.250;2022-08-03T01:01:31;98461.84;;;16.67;100.00
54417;BME280;40326;51.220;7.250;2022-08-03T01:03:56;98457.63;;;16.66;100.00
54417;BME280;40326;51.220;7.250;2022-08-03T01:06:33;98458.69;;;16.63;100.00
54417;BME280;40326;51.220;7.250;2022-08-03T01:12:28;98453.03;;;16.58;100.00
54417;BME280;40326;51.220;7.250;2022-08-03T01:20:13;98453.59;;;16.62;100.00
54417;BME280;40326;51.220;7.250;2022-08-03T01:28:32;98444.56;;;16.56;100.00
54417;BME280;40326;51.220;7.250;2022-08-03T01:31:06;98452.03;;;16.48;100.00
54417;BME280;40326;51.220;7.250;2022-08-03T01:33:41;98447.94;;;16.45;100.00
54417;BME280;40326;51.220;7.250;2022-08-03T01:36:20;98454.34;;;16.40;100.00
54417;BME280;40326;51.220;7.250;2022-08-03T01:38:49;98444.03;;;16.40;100.00
54417;BME280;40326;51.220;7.250;2022-08-03T01:41:20;98451.34;;;16.46;100.00
54417;BME280;40326;51.220;7.250;2022-08-03T01:43:47;98451.09;;;16.49;100.00
54417;BME280;40326;51.220;7.250;2022-08-03T01:46:16;98459.09;;;16.46;100.00
54417;BME280;40326;51.220;7.250;2022-08-03T01:48:43;98450.84;;;16.41;100.00
54417;BME280;40326;51.220;7.250;2022-08-03T01:51:10;98447.53;;;16.39;100.00
54417;BME280;40326;51.220;7.250;2022-08-03T01:53:39;98452.00;;;16.37;100.00
54417;BME280;40326;51.220;7.250;2022-08-03T01:56:08;98451.63;;;16.30;100.00
54417;BME280;40326;51.220;7.250;2022-08-03T01:58:35;98455.72;;;16.33;100.00
54417;BME280;40326;51.220;7.250;2022-08-03T02:01:02;98456.56;;;16.33;100.00
54417;BME280;40326;51.220;7.250;2022-08-03T02:03:30;98454.09;;;16.32;100.00
54417;BME280;40326;51.220;7.250;2022-08-03T02:05:59;98454.78;;;16.34;100.00
54417;BME280;40326;51.220;7.250;2022-08-03T02:08:26;98457.09;;;16.26;100.00
54417;BME280;40326;51.220;7.250;2022-08-03T02:10:54;98455.69;;;16.22;100.00
54417;BME280;40326;51.220;7.250;2022-08-03T02:13:21;98452.50;;;16.18;100.00
54417;BME280;40326;51.220;7.250;2022-08-03T02:15:48;98455.19;;;16.16;100.00
54417;BME280;40326;51.220;7.250;2022-08-03T02:18:17;98460.63;;;16.25;100.00
54417;BME280;40326;51.220;7.250;2022-08-03T02:20:44;98459.91;;;16.23;100.00
54417;BME280;40326;51.220;7.250;2022-08-03T02:23:10;98460.44;;;16.28;100.00
54417;BME280;40326;51.220;7.250;2022-08-03T02:25:45;98450.00;;;16.16;100.00
54417;BME280;40326;51.220;7.250;2022-08-03T02:28:21;98454.91;;;16.08;100.00
54417;BME280;40326;51.220;7.250;2022-08-03T02:30:53;98456.56;;;16.09;100.00
54417;BME280;40326;51.220;7.250;2022-08-03T02:33:26;98454.19;;;16.06;100.00
54417;BME280;40326;51.220;7.250;2022-08-03T02:35:53;98452.66;;;16.04;100.00
54417;BME280;40326;51.220;7.250;2022-08-03T02:38:20;98462.72;;;15.96;100.00
54417;BME280;40326;51.220;7.250;2022-08-03T02:40:48;98454.38;;;15.92;100.00
54417;BME280;40326;51.220;7.250;2022-08-03T02:43:19;98456.22;;;15.90;100.00
54417;BME280;40326;51.220;7.250;2022-08-03T02:45:48;98458.53;;;15.82;100.00
54417;BME280;40326;51.220;7.250;2022-08-03T02:48:20;98451.38;;;15.85;100.00
54417;BME280;40326;51.220;7.250;2022-08-03T02:50:48;98451.28;;;15.87;100.00
54417;BME280;40326;51.220;7.250;2022-08-03T02:53:16;98464.06;;;15.88;100.00
54417;BME280;40326;51.220;7.250;2022-08-03T02:55:45;98462.41;;;15.87;100.00
54417;BME280;40326;51.220;7.250;2022-08-03T02:58:12;98461.19;;;15.80;100.00
54417;BME280;40326;51.220;7.250;2022-08-03T03:00:38;98456.47;;;15.74;100.00
54417;BME280;40326;51.220;7.250;2022-08-03T03:03:04;98463.41;;;15.74;100.00
54417;BME280;40326;51.220;7.250;2022-08-03T03:05:31;98464.03;;;15.65;100.00
54417;BME280;40326;51.220;7.250;2022-08-03T03:07:56;98462.06;;;15.68;100.00
54417;BME280;40326;51.220;7.250;2022-08-03T03:10:23;98462.78;;;15.70;100.00
54417;BME280;40326;51.220;7.250;2022-08-03T03:12:52;98456.59;;;15.73;100.00
54417;BME280;40326;51.220;7.250;2022-08-03T03:15:19;98461.66;;;15.74;100.00
54417;BME280;40326;51.220;7.250;2022-08-03T03:17:47;98460.00;;;15.60;100.00
54417;BME280;40326;51.220;7.250;2022-08-03T03:20:14;98465.16;;;15.60;100.00
54417;BME280;40326;51.220;7.250;2022-08-03T03:22:40;98468.16;;;15.67;100.00
54417;BME280;40326;51.220;7.250;2022-08-03T03:25:05;98473.63;;;15.63;100.00
54417;BME280;40326;51.220;7.250;2022-08-03T03:27:32;98462.47;;;15.49;100.00
54417;BME280;40326;51.220;7.250;2022-08-03T03:29:58;98473.50;;;15.51;100.00
54417;BME280;40326;51.220;7.250;2022-08-03T03:32:26;98471.16;;;15.48;100.00
54417;BME280;40326;51.220;7.250;2022-08-03T03:34:53;98474.66;;;15.47;100.00
54417;BME280;40326;51.220;7.250;2022-08-03T03:37:18;98479.59;;;15.50;100.00
54417;BME280;40326;51.220;7.250;2022-08-03T03:39:44;98470.22;;;15.49;100.00
54417;BME280;40326;51.220;7.250;2022-08-03T03:42:09;98477.03;;;15.50;100.00
54417;BME280;40326;51.220;7.250;2022-08-03T03:44:35;98472.81;;;15.49;100.00
54417;BME280;40326;51.220;7.250;2022-08-03T03:47:00;98467.63;;;15.49;100.00
54417;BME280;40326;51.220;7.250;2022-08-03T03:49:26;98470.63;;;15.43;100.00
54417;BME280;40326;51.220;7.250;2022-08-03T03:51:53;98475.78;;;15.43;100.00
54417;BME280;40326;51.220;7.250;2022-08-03T03:54:19;98473.53;;;15.39;100.00
54417;BME280;40326;51.220;7.250;2022-08-03T03:56:45;98470.03;;;15.40;100.00
54417;BME280;40326;51.220;7.250;2022-08-03T03:59:10;98463.94;;;15.41;100.00
54417;BME280;40326;51.220;7.250;2022-08-03T04:01:37;98461.25;;;15.42;100.00
54417;BME280;40326;51.220;7.250;2022-08-03T04:04:03;98472.19;;;15.46;100.00
54417;BME280;40326;51.220;7.250;2022-08-03T04:06:49;98469.50;;;15.47;100.00
54417;BME280;40326;51.220;7.250;2022-08-03T04:09:37;98470.72;;;15.54;100.00
54417;BME280;40326;51.220;7.250;2022-08-03T04:12:25;98474.03;;;15.69;100.00
54417;BME280;40326;51.220;7.250;2022-08-03T04:14:53;98473.16;;;15.81;100.00
54417;BME280;40326;51.220;7.250;2022-08-03T04:17:22;98460.19;;;15.83;100.00
54417;BME280;40326;51.220;7.250;2022-08-03T04:19:52;98465.88;;;15.99;100.00
54417;BME280;40326;51.220;7.250;2022-08-03T04:22:21;98455.19;;;16.16;100.00
54417;BME280;40326;51.220;7.250;2022-08-03T04:24:56;98450.56;;;16.33;100.00
54417;BME280;40326;51.220;7.250;2022-08-03T04:27:27;98443.03;;;16.54;100.00
54417;BME280;40326;51.220;7.250;2022-08-03T04:29:55;98431.66;;;16.67;100.00
54417;BME280;40326;51.220;7.250;2022-08-03T04:32:22;98417.38;;;16.74;100.00
54417;BME280;40326;51.220;7.250;2022-08-03T04:34:51;98410.59;;;16.96;100.00
54417;BME280;40326;51.220;7.250;2022-08-03T04:37:34;98422.13;;;17.03;100.00
54417;BME280;40326;51.220;7.250;2022-08-03T04:40:05;98415.28;;;16.91;100.00
54417;BME280;40326;51.220;7.250;2022-08-03T04:42:32;98406.34;;;17.06;100.00
54417;BME280;40326;51.220;7.250;2022-08-03T04:44:58;98409.44;;;17.11;100.00
54417;BME280;40326;51.220;7.250;2022-08-03T04:47:25;98417.75;;;17.03;100.00
54417;BME280;40326;51.220;7.250;2022-08-03T04:49:51;98419.66;;;17.01;100.00
54417;BME280;40326;51.220;7.250;2022-08-03T04:52:16;98415.75;;;17.07;100.00
54417;BME280;40326;51.220;7.250;2022-08-03T04:54:43;98416.38;;;17.22;100.00
54417;BME280;40326;51.220;7.250;2022-08-03T04:57:10;98413.19;;;17.29;100.00
54417;BME280;40326;51.220;7.250;2022-08-03T04:59:35;98406.03;;;17.44;100.00
54417;BME280;40326;51.220;7.250;2022-08-03T05:02:01;98406.56;;;17.59;100.00
54417;BME280;40326;51.220;7.250;2022-08-03T05:04:26;98390.44;;;17.67;100.00
54417;BME280;40326;51.220;7.250;2022-08-03T05:06:51;98399.38;;;17.85;100.00
54417;BME280;40326;51.220;7.250;2022-08-03T05:09:17;98383.31;;;18.02;100.00
54417;BME280;40326;51.220;7.250;2022-08-03T05:11:42;98385.00;;;18.45;100.00
54417;BME280;40326;51.220;7.250;2022-08-03T05:14:07;98376.28;;;18.67;100.00
54417;BME280;40326;51.220;7.250;2022-08-03T05:16:33;98376.25;;;18.78;100.00
54417;BME280;40326;51.220;7.250;2022-08-03T05:18:58;98380.00;;;18.95;100.00
54417;BME280;40326;51.220;7.250;2022-08-03T05:21:23;98373.19;;;19.04;100.00
54417;BME280;40326;51.220;7.250;2022-08-03T05:23:49;98369.19;;;19.20;100.00
54417;BME280;40326;51.220;7.250;2022-08-03T05:26:14;98360.63;;;19.39;100.00
54417;BME280;40326;51.220;7.250;2022-08-03T05:28:40;98364.00;;;19.30;100.00
54417;BME280;40326;51.220;7.250;2022-08-03T05:31:06;98370.34;;;19.37;100.00
54417;BME280;40326;51.220;7.250;2022-08-03T05:33:31;98367.16;;;19.64;100.00
54417;BME280;40326;51.220;7.250;2022-08-03T05:35:56;98359.13;;;19.87;100.00
54417;BME280;40326;51.220;7.250;2022-08-03T05:38:22;98355.94;;;20.22;100.00
54417;BME280;40326;51.220;7.250;2022-08-03T05:40:47;98360.06;;;20.34;100.00
54417;BME280;40326;51.220;7.250;2022-08-03T05:43:13;98363.22;;;20.47;100.00
54417;BME280;40326;51.220;7.250;2022-08-03T05:45:38;98351.75;;;20.87;100.00
54417;BME280;40326;51.220;7.250;2022-08-03T05:48:04;98341.50;;;22.03;100.00
54417;BME280;40326;51.220;7.250;2022-08-03T05:50:29;98316.59;;;23.05;100.00
54417;BME280;40326;51.220;7.250;2022-08-03T05:52:55;98315.03;;;23.78;100.00
54417;BME280;40326;51.220;7.250;2022-08-03T05:55:23;98307.53;;;24.32;100.00
54417;BME280;40326;51.220;7.250;2022-08-03T05:57:49;98297.88;;;24.97;100.00
54417;BME280;40326;51.220;7.250;2022-08-03T06:00:15;98295.75;;;25.00;100.00
54417;BME280;40326;51.220;7.250;2022-08-03T06:02:41;98287.16;;;25.14;100.00
54417;BME280;40326;51.220;7.250;2022-08-03T06:05:07;98294.00;;;25.55;100.00
54417;BME280;40326;51.220;7.250;2022-08-03T06:07:33;98289.13;;;25.74;100.00
54417;BME280;40326;51.220;7.250;2022-08-03T06:09:59;98284.31;;;25.55;100.00
54417;BME280;40326;51.220;7.250;2022-08-03T06:12:28;98285.09;;;25.33;100.00
54417;BME280;40326;51.220;7.250;2022-08-03T06:14:53;98293.13;;;25.62;100.00
54417;BME280;40326;51.220;7.250;2022-08-03T06:17:19;98287.47;;;25.51;100.00
54417;BME280;40326;51.220;7.250;2022-08-03T06:19:44;98287.69;;;25.41;100.00
54417;BME280;40326;51.220;7.250;2022-08-03T06:22:09;98288.69;;;25.71;100.00
54417;BME280;40326;51.220;7.250;2022-08-03T06:24:35;98288.50;;;25.41;100.00
54417;BME280;40326;51.220;7.250;2022-08-03T06:27:00;98289.53;;;26.24;100.00
54417;BME280;40326;51.220;7.250;2022-08-03T06:29:26;98288.50;;;25.72;100.00
54417;BME280;40326;51.220;7.250;2022-08-03T06:31:51;98294.19;;;25.76;100.00
54417;BME280;40326;51.220;7.250;2022-08-03T06:34:16;98291.00;;;25.89;100.00
54417;BME280;40326;51.220;7.250;2022-08-03T06:36:42;98292.22;;;26.39;100.00
54417;BME280;40326;51.220;7.250;2022-08-03T06:39:07;98295.69;;;26.54;100.00
54417;BME280;40326;51.220;7.250;2022-08-03T06:41:33;98287.44;;;25.82;100.00
54417;BME280;40326;51.220;7.250;2022-08-03T06:43:58;98296.66;;;25.78;100.00
54417;BME280;40326;51.220;7.250;2022-08-03T06:46:24;98291.22;;;26.02;100.00
54417;BME280;40326;51.220;7.250;2022-08-03T06:48:49;98288.16;;;26.13;100.00
54417;BME280;40326;51.220;7.250;2022-08-03T06:51:14;98298.28;;;26.39;100.00
54417;BME280;40326;51.220;7.250;2022-08-03T06:53:40;98299.09;;;26.40;100.00
54417;BME280;40326;51.220;7.250;2022-08-03T06:56:06;98296.50;;;26.31;100.00
54417;BME280;40326;51.220;7.250;2022-08-03T06:58:32;98298.03;;;26.11;100.00
54417;BME280;40326;51.220;7.250;2022-08-03T07:00:57;98290.78;;;25.67;100.00
54417;BME280;40326;51.220;7.250;2022-08-03T07:03:22;98295.84;;;25.77;100.00
54417;BME280;40326;51.220;7.250;2022-08-03T07:05:48;98302.63;;;25.63;100.00
54417;BME280;40326;51.220;7.250;2022-08-03T07:08:15;98299.50;;;25.91;100.00
54417;BME280;40326;51.220;7.250;2022-08-03T07:10:41;98300.28;;;25.68;100.00
54417;BME280;40326;51.220;7.250;2022-08-03T07:13:06;98301.97;;;25.38;100.00
54417;BME280;40326;51.220;7.250;2022-08-03T07:15:31;98303.38;;;25.49;100.00
54417;BME280;40326;51.220;7.250;2022-08-03T07:17:57;98309.09;;;25.53;100.00
54417;BME280;40326;51.220;7.250;2022-08-03T07:20:22;98299.09;;;25.79;100.00
54417;BME280;40326;51.220;7.250;2022-08-03T07:22:48;98311.44;;;25.93;100.00
54417;BME280;40326;51.220;7.250;2022-08-03T07:25:13;98305.22;;;25.94;100.00
54417;BME280;40326;51.220;7.250;2022-08-03T07:27:46;98304.38;;;26.17;100.00
54417;BME280;40326;51.220;7.250;2022-08-03T07:30:13;98311.00;;;26.27;100.00
54417;BME280;40326;51.220;7.250;2022-08-03T07:32:39;98310.50;;;26.47;100.00
54417;BME280;40326;51.220;7.250;2022-08-03T07:35:05;98309.97;;;26.96;100.00
54417;BME280;40326;51.220;7.250;2022-08-03T07:37:31;98309.81;;;26.82;100.00
54417;BME280;40326;51.220;7.250;2022-08-03T07:39:58;98309.44;;;27.15;100.00
54417;BME280;40326;51.220;7.250;2022-08-03T07:42:24;98308.44;;;26.72;100.00
54417;BME280;40326;51.220;7.250;2022-08-03T07:44:49;98309.75;;;27.05;100.00
54417;BME280;40326;51.220;7.250;2022-08-03T07:47:19;98314.75;;;27.36;100.00
54417;BME280;40326;51.220;7.250;2022-08-03T07:49:44;98299.63;;;27.60;100.00
54417;BME280;40326;51.220;7.250;2022-08-03T07:52:09;98305.47;;;26.90;100.00
54417;BME280;40326;51.220;7.250;2022-08-03T07:54:53;98304.91;;;27.09;100.00
54417;BME280;40326;51.220;7.250;2022-08-03T07:57:19;98307.44;;;27.17;100.00
54417;BME280;40326;51.220;7.250;2022-08-03T07:59:45;98304.72;;;27.25;100.00
54417;BME280;40326;51.220;7.250;2022-08-03T08:02:11;98309.91;;;27.76;100.00
54417;BME280;40326;51.220;7.250;2022-08-03T08:04:37;98304.22;;;27.94;100.00
54417;BME280;40326;51.220;7.250;2022-08-03T08:07:02;98307.56;;;28.31;100.00
54417;BME280;40326;51.220;7.250;2022-08-03T08:09:28;98299.81;;;28.85;100.00
54417;BME280;40326;51.220;7.250;2022-08-03T08:11:53;98314.50;;;28.94;100.00
54417;BME280;40326;51.220;7.250;2022-08-03T08:14:18;98310.50;;;28.21;100.00
54417;BME280;40326;51.220;7.250;2022-08-03T08:16:44;98307.53;;;27.60;100.00
54417;BME280;40326;51.220;7.250;2022-08-03T08:19:09;98309.78;;;27.84;100.00
54417;BME280;40326;51.220;7.250;2022-08-03T08:21:34;98304.28;;;28.00;100.00
54417;BME280;40326;51.220;7.250;2022-08-03T08:24:00;98302.19;;;28.17;100.00
54417;BME280;40326;51.220;7.250;2022-08-03T08:26:25;98302.78;;;27.91;100.00
54417;BME280;40326;51.220;7.250;2022-08-03T08:28:50;98311.53;;;28.41;100.00
54417;BME280;40326;51.220;7.250;2022-08-03T08:31:17;98299.66;;;28.93;100.00
54417;BME280;40326;51.220;7.250;2022-08-03T08:33:42;98311.84;;;28.66;100.00
54417;BME280;40326;51.220;7.250;2022-08-03T08:36:07;98308.44;;;28.38;100.00
54417;BME280;40326;51.220;7.250;2022-08-03T08:38:34;98304.88;;;28.24;100.00
54417;BME280;40326;51.220;7.250;2022-08-03T08:40:59;98307.50;;;28.80;100.00
54417;BME280;40326;51.220;7.250;2022-08-03T08:43:25;98302.22;;;28.45;100.00
54417;BME280;40326;51.220;7.250;2022-08-03T08:45:53;98303.22;;;28.79;100.00
54417;BME280;40326;51.220;7.250;2022-08-03T08:48:22;98296.72;;;28.40;100.00
54417;BME280;40326;51.220;7.250;2022-08-03T08:50:51;98307.31;;;28.25;100.00
54417;BME280;40326;51.220;7.250;2022-08-03T08:53:17;98309.56;;;28.56;100.00
54417;BME280;40326;51.220;7.250;2022-08-03T08:55:45;98309.44;;;27.87;100.00
54417;BME280;40326;51.220;7.250;2022-08-03T08:58:11;98305.06;;;27.58;100.00
54417;BME280;40326;51.220;7.250;2022-08-03T09:00:40;98314.19;;;27.98;100.00
54417;BME280;40326;51.220;7.250;2022-08-03T09:03:09;98312.88;;;28.37;100.00
54417;BME280;40326;51.220;7.250;2022-08-03T09:05:35;98315.78;;;28.42;100.00
54417;BME280;40326;51.220;7.250;2022-08-03T09:08:01;98312.88;;;28.65;100.00
54417;BME280;40326;51.220;7.250;2022-08-03T09:10:29;98310.88;;;28.74;100.00
54417;BME280;40326;51.220;7.250;2022-08-03T09:12:54;98309.22;;;28.66;100.00
54417;BME280;40326;51.220;7.250;2022-08-03T09:15:28;98306.03;;;29.05;100.00
54417;BME280;40326;51.220;7.250;2022-08-03T09:17:57;98309.25;;;29.55;100.00
54417;BME280;40326;51.220;7.250;2022-08-03T09:20:25;98319.91;;;28.86;100.00
54417;BME280;40326;51.220;7.250;2022-08-03T09:22:59;98311.56;;;29.24;100.00
54417;BME280;40326;51.220;7.250;2022-08-03T09:25:29;98310.69;;;29.58;100.00
54417;BME280;40326;51.220;7.250;2022-08-03T09:28:03;98307.84;;;29.73;100.00
54417;BME280;40326;51.220;7.250;2022-08-03T09:30:29;98312.56;;;30.37;100.00
54417;BME280;40326;51.220;7.250;2022-08-03T09:33:00;98303.25;;;30.14;100.00
54417;BME280;40326;51.220;7.250;2022-08-03T09:35:26;98309.94;;;29.84;100.00
54417;BME280;40326;51.220;7.250;2022-08-03T09:38:18;98315.78;;;28.77;100.00
54417;BME280;40326;51.220;7.250;2022-08-03T09:40:48;98310.38;;;28.57;100.00
54417;BME280;40326;51.220;7.250;2022-08-03T09:43:13;98304.53;;;29.44;98.24
54417;BME280;40326;51.220;7.250;2022-08-03T09:45:39;98312.00;;;29.34;100.00
54417;BME280;40326;51.220;7.250;2022-08-03T09:48:24;98305.69;;;30.09;100.00
54417;BME280;40326;51.220;7.250;2022-08-03T09:50:55;98303.16;;;29.55;100.00
54417;BME280;40326;51.220;7.250;2022-08-03T09:53:21;98308.88;;;29.10;100.00
54417;BME280;40326;51.220;7.250;2022-08-03T09:55:55;98307.94;;;29.38;98.82
54417;BME280;40326;51.220;7.250;2022-08-03T09:58:22;98305.66;;;30.36;96.67
54417;BME280;40326;51.220;7.250;2022-08-03T10:03:21;98311.66;;;28.96;96.66
54417;BME280;40326;51.220;7.250;2022-08-03T10:05:46;98316.41;;;28.79;100.00
54417;BME280;40326;51.220;7.250;2022-08-03T10:08:16;98305.28;;;29.25;98.82
54417;BME280;40326;51.220;7.250;2022-08-03T10:10:43;98308.56;;;29.33;93.60
54417;BME280;40326;51.220;7.250;2022-08-03T10:13:13;98300.34;;;28.74;100.00
54417;BME280;40326;51.220;7.250;2022-08-03T10:15:39;98307.25;;;29.71;100.00
54417;BME280;40326;51.220;7.250;2022-08-03T10:18:06;98306.22;;;29.10;89.84
54417;BME280;40326;51.220;7.250;2022-08-03T10:20:36;98303.06;;;29.22;88.42
54417;BME280;40326;51.220;7.250;2022-08-03T10:23:22;98299.03;;;29.32;83.49
54417;BME280;40326;51.220;7.250;2022-08-03T10:26:06;98295.50;;;29.66;74.22
54417;BME280;40326;51.220;7.250;2022-08-03T10:28:52;98298.38;;;30.31;66.13
54417;BME280;40326;51.220;7.250;2022-08-03T10:31:24;98298.75;;;29.95;79.25
54417;BME280;40326;51.220;7.250;2022-08-03T10:33:51;98297.78;;;29.22;77.47
54417;BME280;40326;51.220;7.250;2022-08-03T10:36:22;98291.78;;;29.54;74.21
54417;BME280;40326;51.220;7.250;2022-08-03T10:38:50;98286.56;;;29.67;72.07
54417;BME280;40326;51.220;7.250;2022-08-03T10:41:22;98281.31;;;30.07;66.69
54417;BME280;40326;51.220;7.250;2022-08-03T10:44:19;98276.84;;;30.14;72.32
54417;BME280;40326;51.220;7.250;2022-08-03T10:46:47;98282.94;;;30.02;63.08
54417;BME280;40326;51.220;7.250;2022-08-03T10:49:16;98270.53;;;29.08;60.73
54417;BME280;40326;51.220;7.250;2022-08-03T10:51:44;98272.09;;;28.89;69.37
54417;BME280;40326;51.220;7.250;2022-08-03T10:57:01;98268.66;;;29.50;72.45
54417;BME280;40326;51.220;7.250;2022-08-03T11:02:10;98258.94;;;29.57;63.34
54417;BME280;40326;51.220;7.250;2022-08-03T11:04:38;98259.75;;;29.90;68.01
54417;BME280;40326;51.220;7.250;2022-08-03T11:09:43;98251.25;;;29.95;55.12
54417;BME280;40326;51.220;7.250;2022-08-03T11:12:22;98253.69;;;30.03;70.75
54417;BME280;40326;51.220;7.250;2022-08-03T11:14:48;98246.78;;;30.29;59.64
54417;BME280;40326;51.220;7.250;2022-08-03T11:17:13;98255.69;;;30.41;61.92
54417;BME280;40326;51.220;7.250;2022-08-03T11:19:46;98247.53;;;30.42;70.34
54417;BME280;40326;51.220;7.250;2022-08-03T11:22:12;98244.13;;;29.76;65.19
54417;BME280;40326;51.220;7.250;2022-08-03T11:37:36;98248.59;;;30.15;62.34
54417;BME280;40326;51.220;7.250;2022-08-03T11:43:08;98251.56;;;30.58;64.30
54417;BME280;40326;51.220;7.250;2022-08-03T11:45:34;98248.28;;;30.83;61.93
54417;BME280;40326;51.220;7.250;2022-08-03T11:48:13;98245.59;;;31.34;57.16
54417;BME280;40326;51.220;7.250;2022-08-03T11:50:40;98254.44;;;30.50;64.10
54417;BME280;40326;51.220;7.250;2022-08-03T11:53:07;98251.91;;;30.82;60.74
54417;BME280;40326;51.220;7.250;2022-08-03T11:55:32;98246.94;;;31.05;58.39
54417;BME280;40326;51.220;7.250;2022-08-03T11:57:59;98250.03;;;31.02;60.67
54417;BME280;40326;51.220;7.250;2022-08-03T12:00:27;98244.50;;;31.10;61.17
54417;BME280;40326;51.220;7.250;2022-08-03T12:03:03;98246.94;;;31.43;69.93
54417;BME280;40326;51.220;7.250;2022-08-03T12:05:52;98252.84;;;31.45;57.01
54417;BME280;40326;51.220;7.250;2022-08-03T12:10:53;98244.88;;;31.07;59.18
54417;BME280;40326;51.220;7.250;2022-08-03T12:13:20;98247.91;;;31.55;60.03
54417;BME280;40326;51.220;7.250;2022-08-03T12:15:56;98242.16;;;30.82;62.05
54417;BME280;40326;51.220;7.250;2022-08-03T12:18:23;98244.38;;;31.61;62.28
54417;BME280;40326;51.220;7.250;2022-08-03T12:20:50;98238.06;;;31.38;59.74
54417;BME280;40326;51.220;7.250;2022-08-03T12:23:17;98235.28;;;31.19;56.47
54417;BME280;40326;51.220;7.250;2022-08-03T12:25:43;98240.31;;;31.66;70.56
54417;BME280;40326;51.220;7.250;2022-08-03T12:28:19;98232.66;;;31.82;61.12
54417;BME280;40326;51.220;7.250;2022-08-03T12:30:51;98236.97;;;32.02;54.14
54417;BME280;40326;51.220;7.250;2022-08-03T12:33:24;98233.84;;;31.23;56.67
54417;BME280;40326;51.220;7.250;2022-08-03T12:36:06;98235.19;;;30.94;70.27
54417;BME280;40326;51.220;7.250;2022-08-03T12:38:34;98227.88;;;30.96;62.27
54417;BME280;40326;51.220;7.250;2022-08-03T12:41:08;98231.84;;;30.54;63.80
54417;BME280;40326;51.220;7.250;2022-08-03T12:43:46;98233.56;;;30.15;73.88
54417;BME280;40326;51.220;7.250;2022-08-03T12:46:16;98230.44;;;30.51;75.01
54417;BME280;40326;51.220;7.250;2022-08-03T12:51:22;98223.91;;;31.19;70.56
54417;BME280;40326;51.220;7.250;2022-08-03T12:53:54;98224.25;;;31.60;61.96
54417;BME280;40326;51.220;7.250;2022-08-03T12:56:20;98226.00;;;31.42;58.17
54417;BME280;40326;51.220;7.250;2022-08-03T12:58:45;98228.69;;;30.97;58.21
54417;BME280;40326;51.220;7.250;2022-08-03T13:01:12;98229.94;;;30.88;63.32
54417;BME280;40326;51.220;7.250;2022-08-03T13:03:39;98236.44;;;30.92;63.17
54417;BME280;40326;51.220;7.250;2022-08-03T13:06:16;98227.88;;;31.34;65.64
54417;BME280;40326;51.220;7.250;2022-08-03T13:08:42;98234.19;;;31.33;62.69
54417;BME280;40326;51.220;7.250;2022-08-03T13:11:23;98229.34;;;31.87;56.64
54417;BME280;40326;51.220;7.250;2022-08-03T13:13:49;98230.19;;;31.56;65.80
54417;BME280;40326;51.220;7.250;2022-08-03T13:16:15;98244.00;;;31.89;55.48
54417;BME280;40326;51.220;7.250;2022-08-03T13:18:40;98233.06;;;31.79;53.48
54417;BME280;40326;51.220;7.250;2022-08-03T13:21:06;98224.06;;;31.30;54.30
54417;BME280;40326;51.220;7.250;2022-08-03T13:23:31;98224.94;;;31.99;65.90
54417;BME280;40326;51.220;7.250;2022-08-03T13:25:57;98218.97;;;31.85;58.51
54417;BME280;40326;51.220;7.250;2022-08-03T13:28:22;98228.72;;;32.53;52.98
54417;BME280;40326;51.220;7.250;2022-08-03T13:30:47;98211.72;;;32.42;54.63
54417;BME280;40326;51.220;7.250;2022-08-03T13:33:13;98216.69;;;32.14;56.51
54417;BME280;40326;51.220;7.250;2022-08-03T13:35:38;98207.16;;;32.68;58.14
54417;BME280;40326;51.220;7.250;2022-08-03T13:38:03;98219.44;;;32.44;50.52
54417;BME280;40326;51.220;7.250;2022-08-03T13:40:29;98216.13;;;31.87;48.72
54417;BME280;40326;51.220;7.250;2022-08-03T13:42:56;98214.19;;;31.69;50.57